createdAt,value
2023-05-14T00:01:42.071Z,12.11
2023-05-14T00:04:09.222Z,12.07
2023-05-14T00:06:36.639Z,11.48
2023-05-14T00:09:04.341Z,11.94
2023-05-14T00:11:32.032Z,11.82
2023-05-14T00:13:59.213Z,11.70
2023-05-14T00:16:26.603Z,11.44
2023-05-14T00:18:54.542Z,11.45
2023-05-14T00:21:25.101Z,11.29
2023-05-14T00:23:52.295Z,11.91
2023-05-14T00:26:21.555Z,12.05
2023-05-14T00:28:49.414Z,11.86
2023-05-14T00:31:17.856Z,11.88
2023-05-14T00:33:47.969Z,12.15
2023-05-14T00:36:16.604Z,11.79
2023-05-14T00:38:43.785Z,11.95
2023-05-14T00:41:11.448Z,11.62
2023-05-14T00:43:38.673Z,11.80
2023-05-14T00:46:06.668Z,12.14
2023-05-14T00:48:34.463Z,11.40
2023-05-14T00:51:02.184Z,11.61
2023-05-14T00:53:29.585Z,11.64
2023-05-14T00:55:58.308Z,11.46
2023-05-14T00:58:26.029Z,11.55
2023-05-14T01:00:53.570Z,11.48
2023-05-14T01:03:20.970Z,11.53
2023-05-14T01:06:18.845Z,11.38
2023-05-14T01:09:07.918Z,11.23
2023-05-14T01:12:06.665Z,11.07
2023-05-14T01:14:34.189Z,11.00
2023-05-14T01:17:04.839Z,10.63
2023-05-14T01:19:45.435Z,11.03
2023-05-14T01:22:13.278Z,10.86
2023-05-14T01:24:40.598Z,10.64
2023-05-14T01:27:18.636Z,11.01
2023-05-14T01:29:53.245Z,11.12
2023-05-14T01:32:24.540Z,10.98
2023-05-14T01:34:52.392Z,10.91
2023-05-14T01:37:22.612Z,10.95
2023-05-14T01:39:51.933Z,10.86
2023-05-14T01:42:19.739Z,10.55
2023-05-14T01:44:47.081Z,10.54
2023-05-14T01:47:14.382Z,10.90
2023-05-14T01:49:41.411Z,10.61
2023-05-14T01:52:08.991Z,10.60
2023-05-14T01:54:35.999Z,10.80
2023-05-14T01:57:03.523Z,10.49
2023-05-14T01:59:30.592Z,10.89
2023-05-14T02:01:58.087Z,10.84
2023-05-14T02:04:25.302Z,10.66
2023-05-14T02:06:53.388Z,10.52
2023-05-14T02:09:20.534Z,10.58
2023-05-14T02:11:47.924Z,10.63
2023-05-14T02:14:15.669Z,10.29
2023-05-14T02:16:43.069Z,10.02
2023-05-14T02:19:10.446Z,10.05
2023-05-14T02:21:37.972Z,10.52
2023-05-14T02:24:05.116Z,10.62
2023-05-14T02:26:32.484Z,10.63
2023-05-14T02:28:59.535Z,10.88
2023-05-14T02:31:26.962Z,10.77
2023-05-14T02:33:53.968Z,11.21
2023-05-14T02:36:21.590Z,10.55
2023-05-14T02:38:48.651Z,10.65
2023-05-14T02:41:16.015Z,10.80
2023-05-14T02:43:43.189Z,11.06
2023-05-14T02:46:10.749Z,11.16
2023-05-14T02:48:39.093Z,11.04
2023-05-14T02:51:08.211Z,11.31
2023-05-14T02:53:35.335Z,11.12
2023-05-14T02:56:02.746Z,10.86
2023-05-14T02:58:32.379Z,10.90
2023-05-14T03:01:00.064Z,10.92
2023-05-14T03:03:30.098Z,11.10
2023-05-14T03:05:58.006Z,11.16
2023-05-14T03:08:25.049Z,11.28
2023-05-14T03:10:52.412Z,10.96
2023-05-14T03:13:20.759Z,10.86
2023-05-14T03:15:48.695Z,10.79
2023-05-14T03:18:15.870Z,10.48
2023-05-14T03:20:43.341Z,10.61
2023-05-14T03:23:10.631Z,10.59
2023-05-14T03:25:38.054Z,10.76
2023-05-14T03:28:05.253Z,11.21
2023-05-14T03:30:32.937Z,11.00
2023-05-14T03:33:00.152Z,11.33
2023-05-14T03:35:27.585Z,11.07
2023-05-14T03:37:54.599Z,10.96
2023-05-14T03:40:22.017Z,11.06
2023-05-14T03:42:50.218Z,11.18
2023-05-14T03:45:17.710Z,11.42
2023-05-14T03:47:44.793Z,11.45
2023-05-14T03:50:12.302Z,11.32
2023-05-14T03:52:40.205Z,11.34
2023-05-14T03:55:08.991Z,11.23
2023-05-14T03:57:36.826Z,11.41
2023-05-14T04:00:04.986Z,11.87
2023-05-14T04:02:44.079Z,11.97
2023-05-14T04:05:11.746Z,12.16
2023-05-14T04:07:38.739Z,12.28
2023-05-14T04:10:06.813Z,12.35
2023-05-14T04:12:35.967Z,12.40
2023-05-14T04:15:05.154Z,12.42
2023-05-14T04:17:33.483Z,12.94
2023-05-14T04:20:05.679Z,12.81
2023-05-14T04:22:32.722Z,12.94
2023-05-14T04:25:00.068Z,13.00
2023-05-14T04:27:27.148Z,13.36
2023-05-14T04:29:54.649Z,13.39
2023-05-14T04:32:21.734Z,13.62
2023-05-14T04:34:49.365Z,13.78
2023-05-14T04:37:16.568Z,13.88
2023-05-14T04:39:46.119Z,13.67
2023-05-14T04:42:13.555Z,13.83
2023-05-14T04:44:40.953Z,13.95
2023-05-14T04:47:08.024Z,14.53
2023-05-14T04:49:35.294Z,14.21
2023-05-14T04:52:02.639Z,14.56
2023-05-14T04:54:29.998Z,14.68
2023-05-14T04:56:57.037Z,14.90
2023-05-14T04:59:24.319Z,15.25
2023-05-14T05:01:51.795Z,15.35
2023-05-14T05:04:19.377Z,15.60
2023-05-14T05:06:46.649Z,15.67
2023-05-14T05:09:14.201Z,16.29
2023-05-14T05:11:41.287Z,16.83
2023-05-14T05:14:08.600Z,16.23
2023-05-14T05:16:36.140Z,16.39
2023-05-14T05:19:03.594Z,16.00
2023-05-14T05:21:31.461Z,16.30
2023-05-14T05:23:59.112Z,16.71
2023-05-14T05:26:27.450Z,16.11
2023-05-14T05:28:55.874Z,16.36
2023-05-14T05:31:26.154Z,16.07
2023-05-14T05:33:59.186Z,16.21
2023-05-14T05:36:41.857Z,17.14
2023-05-14T05:39:14.233Z,16.48
2023-05-14T05:41:48.141Z,17.31
2023-05-14T05:44:17.030Z,16.96
2023-05-14T05:46:45.273Z,17.29
2023-05-14T05:49:14.331Z,17.20
2023-05-14T05:51:42.242Z,17.06
2023-05-14T05:54:10.735Z,17.58
2023-05-14T05:56:37.809Z,18.27
2023-05-14T05:59:05.526Z,17.93
2023-05-14T06:01:32.735Z,17.65
2023-05-14T06:04:12.519Z,18.37
2023-05-14T06:06:41.342Z,18.53
2023-05-14T06:09:09.451Z,17.86
2023-05-14T06:11:36.549Z,18.26
2023-05-14T06:14:03.881Z,18.62
2023-05-14T06:16:31.110Z,18.99
2023-05-14T06:19:02.153Z,18.89
2023-05-14T06:21:29.692Z,18.97
2023-05-14T06:23:57.065Z,18.67
2023-05-14T06:26:24.219Z,19.40
2023-05-14T06:28:52.118Z,18.66
2023-05-14T06:31:19.576Z,18.90
2023-05-14T06:33:48.126Z,19.53
2023-05-14T06:36:20.177Z,18.51
2023-05-14T06:38:47.902Z,19.17
2023-05-14T06:41:14.989Z,18.97
2023-05-14T06:43:42.640Z,19.76
2023-05-14T06:46:09.641Z,20.02
2023-05-14T06:48:37.132Z,20.72
2023-05-14T06:51:04.485Z,19.69
2023-05-14T06:53:32.266Z,19.69
2023-05-14T06:56:16.884Z,20.93
2023-05-14T06:58:45.754Z,20.68
2023-05-14T07:01:13.043Z,20.96
2023-05-14T07:03:40.518Z,20.93
2023-05-14T07:06:07.708Z,20.44
2023-05-14T07:08:35.208Z,20.91
2023-05-14T07:11:02.387Z,20.68
2023-05-14T07:13:31.023Z,20.61
2023-05-14T07:15:58.811Z,20.95
2023-05-14T07:18:27.145Z,21.24
2023-05-14T07:20:54.453Z,21.75
2023-05-14T07:23:22.125Z,21.15
2023-05-14T07:25:49.231Z,21.95
2023-05-14T07:28:16.700Z,22.46
2023-05-14T07:30:44.141Z,22.31
2023-05-14T07:33:11.763Z,22.29
2023-05-14T07:35:39.281Z,22.42
2023-05-14T07:38:07.623Z,22.43
2023-05-14T07:40:35.101Z,22.79
2023-05-14T07:43:03.284Z,22.66
2023-05-14T07:45:35.535Z,21.99
2023-05-14T07:48:09.114Z,22.84
2023-05-14T07:50:41.983Z,21.68
2023-05-14T07:53:13.875Z,22.78
2023-05-14T07:55:42.131Z,22.05
2023-05-14T07:58:09.595Z,22.70
2023-05-14T08:00:36.754Z,23.25
2023-05-14T08:03:04.634Z,23.44
2023-05-14T08:05:33.072Z,23.57
2023-05-14T08:08:00.627Z,23.65
2023-05-14T08:10:28.411Z,23.27
2023-05-14T08:12:56.368Z,23.14
2023-05-14T08:15:26.363Z,23.70
2023-05-14T08:17:56.157Z,23.81
2023-05-14T08:20:24.310Z,23.43
2023-05-14T08:22:52.178Z,23.70
2023-05-14T08:25:19.505Z,23.75
2023-05-14T08:27:47.364Z,23.34
2023-05-14T08:30:15.999Z,23.74
2023-05-14T08:32:49.521Z,23.71
2023-05-14T08:35:20.291Z,23.98
2023-05-14T08:37:51.950Z,23.56
2023-05-14T08:40:22.396Z,23.90
2023-05-14T08:42:54.850Z,23.89
2023-05-14T08:45:35.874Z,23.79
2023-05-14T08:48:33.987Z,23.97
2023-05-14T08:51:04.035Z,24.09
2023-05-14T08:53:35.752Z,24.53
2023-05-14T08:56:06.868Z,24.29
2023-05-14T08:58:35.338Z,24.20
2023-05-14T09:01:07.227Z,24.64
2023-05-14T09:03:37.139Z,24.64
2023-05-14T09:06:06.159Z,24.33
2023-05-14T09:08:34.771Z,24.29
2023-05-14T09:11:01.879Z,24.15
2023-05-14T09:13:29.297Z,24.47
2023-05-14T09:15:58.197Z,24.86
2023-05-14T09:18:27.124Z,24.56
2023-05-14T09:20:55.497Z,24.65
2023-05-14T09:23:27.518Z,25.42
2023-05-14T09:28:42.642Z,25.47
2023-05-14T09:31:13.188Z,25.59
2023-05-14T09:33:42.493Z,25.46
2023-05-14T09:36:12.628Z,25.37
2023-05-14T09:38:43.437Z,25.26
2023-05-14T09:41:18.665Z,25.75
2023-05-14T09:43:48.353Z,26.07
2023-05-14T09:46:24.869Z,25.47
2023-05-14T09:48:58.532Z,25.80
2023-05-14T09:51:32.433Z,25.89
2023-05-14T09:54:05.016Z,25.86
2023-05-14T09:56:34.456Z,25.81
2023-05-14T09:59:03.134Z,25.74
2023-05-14T10:01:31.595Z,25.10
2023-05-14T10:03:59.482Z,25.08
2023-05-14T10:06:34.185Z,25.56
2023-05-14T10:09:23.908Z,25.82
2023-05-14T10:11:59.532Z,25.60
2023-05-14T10:14:36.585Z,25.64
2023-05-14T10:17:29.908Z,25.54
2023-05-14T10:20:09.711Z,26.53
2023-05-14T10:22:39.791Z,26.15
2023-05-14T10:25:12.604Z,26.41
2023-05-14T10:27:42.024Z,27.01
2023-05-14T10:30:19.833Z,26.40
2023-05-14T10:33:05.988Z,26.73
2023-05-14T10:35:58.134Z,25.89
2023-05-14T10:38:29.400Z,26.90
2023-05-14T10:43:52.309Z,27.36
2023-05-14T10:46:24.824Z,26.76
2023-05-14T10:48:54.606Z,26.22
2023-05-14T10:51:28.352Z,25.47
2023-05-14T10:54:02.145Z,24.83
2023-05-14T10:56:33.176Z,24.90
2023-05-14T10:59:00.255Z,25.82
2023-05-14T11:01:28.665Z,24.71
2023-05-14T11:03:58.617Z,25.17
2023-05-14T11:06:27.526Z,25.30
2023-05-14T11:08:55.079Z,25.81
2023-05-14T11:11:24.655Z,25.50
2023-05-14T11:13:55.276Z,25.34
2023-05-14T11:16:31.550Z,25.55
2023-05-14T11:19:05.087Z,26.81
2023-05-14T11:21:32.877Z,28.10
2023-05-14T11:24:00.953Z,27.90
2023-05-14T11:26:28.434Z,27.61
2023-05-14T11:28:55.785Z,28.22
2023-05-14T11:31:24.318Z,27.70
2023-05-14T11:33:52.578Z,28.06
2023-05-14T11:36:20.306Z,26.85
2023-05-14T11:38:52.319Z,27.54
2023-05-14T11:41:22.827Z,27.14
2023-05-14T11:43:50.831Z,27.41
2023-05-14T11:46:19.039Z,26.68
2023-05-14T11:48:46.315Z,26.46
2023-05-14T11:51:13.810Z,26.05
2023-05-14T11:53:41.051Z,25.13
2023-05-14T11:56:09.956Z,24.34
2023-05-14T11:58:37.452Z,24.05
2023-05-14T12:01:04.818Z,24.30
2023-05-14T12:07:12.189Z,23.02
2023-05-14T12:09:51.530Z,23.08
2023-05-14T12:12:22.506Z,25.05
2023-05-14T12:14:53.927Z,24.98
2023-05-14T12:17:29.213Z,24.76
2023-05-14T12:19:57.496Z,23.33
2023-05-14T12:22:29.988Z,22.83
2023-05-14T12:25:03.997Z,22.38
2023-05-14T12:27:31.562Z,21.75
2023-05-14T12:30:19.060Z,22.18
2023-05-14T12:32:53.813Z,22.07
2023-05-14T12:35:23.231Z,22.52
2023-05-14T12:37:50.865Z,21.86
2023-05-14T12:40:22.690Z,21.82
2023-05-14T12:42:51.643Z,21.04
2023-05-14T12:45:21.190Z,20.82
2023-05-14T12:48:43.909Z,21.07
2023-05-14T12:51:40.093Z,21.07
2023-05-14T12:54:11.314Z,21.86
2023-05-14T12:56:39.758Z,22.12
2023-05-14T12:59:08.085Z,22.55
2023-05-14T13:01:38.579Z,22.98
2023-05-14T13:04:06.776Z,23.27
2023-05-14T13:06:35.082Z,23.07
2023-05-14T13:09:04.628Z,22.20
2023-05-14T13:11:45.732Z,21.51
2023-05-14T13:14:21.794Z,21.53
2023-05-14T13:16:53.816Z,21.29
2023-05-14T13:19:23.246Z,21.43
2023-05-14T13:21:54.565Z,20.92
2023-05-14T13:24:25.645Z,20.86
2023-05-14T13:26:59.312Z,21.21
2023-05-14T13:29:32.361Z,21.19
2023-05-14T13:32:04.586Z,21.75
2023-05-14T13:34:38.962Z,22.04
2023-05-14T13:37:09.440Z,21.80
2023-05-14T13:39:37.136Z,22.91
2023-05-14T13:42:05.741Z,22.69
2023-05-14T13:44:34.150Z,23.49
2023-05-14T13:47:02.504Z,22.34
2023-05-14T13:49:32.492Z,22.50
2023-05-14T13:52:06.999Z,22.64
2023-05-14T13:54:41.621Z,21.47
2023-05-14T13:57:18.397Z,21.47
2023-05-14T13:59:50.091Z,21.91
2023-05-14T14:02:28.850Z,22.36
2023-05-14T14:04:59.811Z,21.58
2023-05-14T14:07:27.619Z,21.19
2023-05-14T14:09:55.022Z,21.07
2023-05-14T14:12:28.370Z,21.24
2023-05-14T14:15:02.984Z,21.56
2023-05-14T14:17:34.235Z,21.41
2023-05-14T14:20:01.963Z,21.22
2023-05-14T14:22:31.208Z,21.39
2023-05-14T14:24:59.364Z,21.75
2023-05-14T14:27:28.127Z,21.35
2023-05-14T14:29:56.863Z,21.35
2023-05-14T14:32:25.028Z,21.48
2023-05-14T14:34:52.757Z,21.54
2023-05-14T14:37:22.410Z,21.62
2023-05-14T14:39:51.221Z,21.25
2023-05-14T14:42:19.294Z,20.91
2023-05-14T14:44:47.314Z,21.06
2023-05-14T14:47:16.479Z,21.31
2023-05-14T14:49:44.863Z,21.62
2023-05-14T14:52:13.297Z,22.05
2023-05-14T14:54:43.232Z,21.53
2023-05-14T14:57:12.204Z,21.62
2023-05-14T14:59:40.741Z,21.52
2023-05-14T15:02:12.089Z,21.02
2023-05-14T15:04:42.177Z,20.83
2023-05-14T15:07:15.010Z,20.77
2023-05-14T15:09:51.335Z,21.04
2023-05-14T15:12:21.647Z,20.94
2023-05-14T15:14:50.919Z,20.56
2023-05-14T15:17:22.652Z,20.48
2023-05-14T15:19:50.766Z,20.72
2023-05-14T15:22:18.750Z,20.51
2023-05-14T15:24:47.131Z,20.54
2023-05-14T15:27:16.062Z,20.71
2023-05-14T15:29:43.830Z,21.00
2023-05-14T15:32:11.831Z,20.68
2023-05-14T15:34:39.399Z,20.50
2023-05-14T15:37:07.311Z,20.41
2023-05-14T15:39:34.810Z,20.59
2023-05-14T15:42:03.433Z,20.63
2023-05-14T15:44:31.002Z,20.59
2023-05-14T15:46:59.498Z,20.25
2023-05-14T15:49:33.233Z,20.50
2023-05-14T15:52:03.645Z,20.83
2023-05-14T15:54:32.705Z,20.56
2023-05-14T15:57:02.681Z,20.35
2023-05-14T15:59:32.536Z,20.56
2023-05-14T16:02:01.051Z,20.50
2023-05-14T16:04:29.203Z,21.05
2023-05-14T16:07:05.492Z,20.90
2023-05-14T16:09:36.932Z,20.99
2023-05-14T16:12:28.396Z,20.81
2023-05-14T16:15:16.817Z,20.75
2023-05-14T16:17:49.370Z,20.80
2023-05-14T16:20:18.634Z,20.32
2023-05-14T16:22:46.710Z,20.51
2023-05-14T16:25:22.060Z,20.38
2023-05-14T16:28:09.871Z,20.36
2023-05-14T16:30:43.316Z,20.06
2023-05-14T16:33:15.749Z,20.64
2023-05-14T16:35:47.876Z,20.89
2023-05-14T16:38:31.762Z,20.51
2023-05-14T16:41:18.993Z,20.32
2023-05-14T16:43:46.943Z,20.12
2023-05-14T16:46:17.386Z,20.23
2023-05-14T16:49:10.037Z,20.08
2023-05-14T16:51:44.430Z,20.30
2023-05-14T16:54:15.682Z,20.64
2023-05-14T16:56:48.775Z,20.03
2023-05-14T16:59:23.496Z,20.05
2023-05-14T17:01:58.988Z,20.28
2023-05-14T17:04:33.761Z,20.02
2023-05-14T17:07:03.864Z,20.03
2023-05-14T17:09:38.844Z,19.90
2023-05-14T17:12:12.778Z,20.01
2023-05-14T17:14:45.501Z,19.92
2023-05-14T17:17:13.812Z,19.98
2023-05-14T17:20:17.032Z,19.96
2023-05-14T17:22:46.802Z,19.94
2023-05-14T17:25:15.723Z,20.10
2023-05-14T17:27:43.888Z,20.11
2023-05-14T17:30:13.778Z,19.77
2023-05-14T17:32:41.824Z,19.82
2023-05-14T17:35:10.721Z,19.63
2023-05-14T17:37:39.075Z,19.59
2023-05-14T17:40:11.993Z,19.79
2023-05-14T17:43:04.026Z,19.50
2023-05-14T17:45:42.752Z,19.77
2023-05-14T17:48:22.664Z,19.66
2023-05-14T17:50:56.382Z,19.48
2023-05-14T17:53:26.475Z,19.37
2023-05-14T17:55:54.432Z,19.56
2023-05-14T17:58:21.912Z,19.43
2023-05-14T18:00:49.985Z,19.41
2023-05-14T18:03:20.408Z,19.13
2023-05-14T18:05:48.397Z,19.08
2023-05-14T18:08:17.103Z,19.52
2023-05-14T18:10:48.124Z,19.49
2023-05-14T18:13:16.601Z,18.79
2023-05-14T18:15:44.914Z,18.70
2023-05-14T18:18:12.690Z,18.64
2023-05-14T18:20:40.925Z,18.58
2023-05-14T18:23:09.113Z,18.63
2023-05-14T18:25:37.184Z,18.38
2023-05-14T18:28:04.766Z,18.21
2023-05-14T18:30:32.518Z,18.14
2023-05-14T18:33:00.278Z,17.94
2023-05-14T18:35:28.473Z,17.93
2023-05-14T18:37:56.432Z,17.77
2023-05-14T18:40:25.924Z,17.96
2023-05-14T18:42:58.025Z,17.56
2023-05-14T18:45:35.521Z,17.42
2023-05-14T18:48:18.638Z,17.52
2023-05-14T18:51:06.716Z,17.78
2023-05-14T18:53:36.429Z,17.70
2023-05-14T18:56:05.841Z,17.33
2023-05-14T18:58:38.263Z,16.99
2023-05-14T19:01:11.727Z,17.28
2023-05-14T19:03:43.344Z,17.43
2023-05-14T19:06:18.618Z,16.71
2023-05-14T19:09:07.286Z,17.17
2023-05-14T19:13:00.366Z,17.08
2023-05-14T19:15:59.633Z,17.29
2023-05-14T19:19:07.813Z,17.02
2023-05-14T19:22:38.100Z,16.93
2023-05-14T19:25:20.075Z,16.68
2023-05-14T19:27:59.265Z,16.71
2023-05-14T19:31:08.862Z,16.78
2023-05-14T19:34:06.725Z,17.13
2023-05-14T19:36:59.257Z,16.83
2023-05-14T19:40:04.380Z,16.42
2023-05-14T19:42:53.923Z,16.79
2023-05-14T19:45:45.680Z,16.47
2023-05-14T19:48:30.534Z,16.27
2023-05-14T19:51:05.811Z,16.29
2023-05-14T19:54:29.043Z,16.49
2023-05-14T19:56:59.441Z,16.21
2023-05-14T19:59:53.370Z,16.28
2023-05-14T20:03:31.214Z,16.41
2023-05-14T20:06:06.212Z,15.80
2023-05-14T20:09:08.495Z,16.15
2023-05-14T20:11:40.273Z,15.69
2023-05-14T20:14:21.138Z,16.33
2023-05-14T20:17:13.265Z,16.05
2023-05-14T20:19:47.930Z,16.07
2023-05-14T20:22:27.789Z,15.71
2023-05-14T20:25:30.715Z,15.93
2023-05-14T20:28:02.461Z,16.06
2023-05-14T20:30:45.253Z,15.75
2023-05-14T20:33:19.581Z,15.82
2023-05-14T20:36:00.871Z,15.32
2023-05-14T20:39:10.456Z,15.43
2023-05-14T20:41:51.768Z,14.76
2023-05-14T20:44:24.548Z,15.35
2023-05-14T20:46:56.765Z,15.56
2023-05-14T20:49:27.836Z,14.74
2023-05-14T20:52:01.215Z,14.88
2023-05-14T20:54:36.167Z,14.57
2023-05-14T20:57:14.165Z,15.08
2023-05-14T20:59:53.714Z,15.46
2023-05-14T21:02:35.589Z,15.36
2023-05-14T21:05:07.495Z,15.07
2023-05-14T21:07:40.090Z,14.90
2023-05-14T21:10:15.245Z,15.23
2023-05-14T21:12:45.158Z,14.44
2023-05-14T21:15:27.816Z,14.63
2023-05-14T21:18:01.199Z,14.26
2023-05-14T21:23:42.567Z,14.43
2023-05-14T21:26:18.240Z,14.32
2023-05-14T21:32:17.579Z,14.41
2023-05-14T21:34:51.914Z,13.83
2023-05-14T21:37:26.125Z,13.79
2023-05-14T21:40:01.367Z,13.52
2023-05-14T21:42:47.317Z,13.86
2023-05-14T21:46:29.940Z,13.89
2023-05-14T21:49:00.590Z,14.01
2023-05-14T21:51:34.644Z,14.06
2023-05-14T21:54:11.473Z,13.61
2023-05-14T21:56:51.147Z,14.02
2023-05-14T21:59:28.617Z,13.61
2023-05-14T22:04:35.621Z,13.83
2023-05-14T22:07:15.824Z,13.51
2023-05-14T22:09:47.764Z,13.64
2023-05-14T22:12:22.804Z,13.37
2023-05-14T22:15:01.768Z,13.51
2023-05-14T22:17:35.596Z,13.72
2023-05-14T22:20:12.004Z,13.61
2023-05-14T22:22:51.263Z,13.12
2023-05-14T22:25:24.560Z,13.10
2023-05-14T22:27:55.908Z,12.79
2023-05-14T22:31:16.748Z,13.43
2023-05-14T22:33:55.187Z,12.86
2023-05-14T22:36:30.825Z,13.16
2023-05-14T22:38:59.167Z,12.76
2023-05-14T22:41:40.471Z,12.30
2023-05-14T22:44:13.706Z,12.29
2023-05-14T22:46:44.711Z,12.64
2023-05-14T22:49:25.118Z,12.57
2023-05-14T22:52:00.771Z,12.39
2023-05-14T22:54:32.734Z,12.79
2023-05-14T22:57:03.921Z,12.86
2023-05-14T22:59:34.773Z,12.93
2023-05-14T23:02:08.596Z,12.92
2023-05-14T23:04:43.998Z,12.98
2023-05-14T23:07:14.270Z,12.70
2023-05-14T23:09:43.240Z,13.05
2023-05-14T23:12:15.758Z,12.75
2023-05-14T23:15:01.606Z,12.73
2023-05-14T23:17:33.425Z,12.61
2023-05-14T23:20:19.034Z,13.03
2023-05-14T23:25:52.792Z,12.59
2023-05-14T23:28:39.276Z,13.05
2023-05-14T23:31:09.880Z,13.35
2023-05-14T23:33:50.340Z,13.49
2023-05-14T23:36:24.756Z,13.20
2023-05-14T23:38:56.490Z,13.22
2023-05-14T23:41:24.976Z,13.45
2023-05-14T23:43:56.209Z,13.67
2023-05-14T23:46:28.567Z,13.48
2023-05-14T23:49:07.065Z,13.42
2023-05-14T23:51:44.976Z,13.46
2023-05-14T23:54:17.935Z,13.56
2023-05-14T23:56:48.076Z,13.32
2023-05-14T23:59:17.338Z,13.27
